Time;durP1;ratioP1;P1;durP2;ratioP2;P2;SDS_P1;SDS_P2;PMS_P1;PMS_P2;Temp;Humidity;BMP_temperature;BMP_pressure;BME280_temperature;BME280_humidity;BME280_pressure;Samples;Min_cycle;Max_cycle;Signal;HPM_P1;HPM_P2
2023/01/24 00:04:20;;;;;;;9.07;7.03;;;;;;;2.39;60.38;101759.34;10406981;28;20304;-65
2023/01/24 00:09:22;;;;;;;7.93;6.47;;;;;;;2.24;60.22;101770.50;10413759;28;20044;-65
2023/01/24 00:14:24;;;;;;;9.00;6.45;;;;;;;2.27;59.98;101760.19;10413735;28;20608;-65
2023/01/24 00:19:25;;;;;;;8.23;5.82;;;;;;;2.31;59.95;101767.09;10412356;28;20051;-66
2023/01/24 00:24:28;;;;;;;8.32;6.57;;;;;;;2.41;59.93;101770.53;10414903;28;20045;-65
2023/01/24 00:29:30;;;;;;;8.93;6.50;;;;;;;2.35;59.84;101761.06;10410999;28;20944;-66
2023/01/24 00:34:31;;;;;;;9.43;6.28;;;;;;;2.31;59.82;101761.94;10416026;28;20056;-66
2023/01/24 00:39:33;;;;;;;7.22;5.38;;;;;;;2.32;59.78;101758.47;10415164;28;20393;-65
2023/01/24 00:44:35;;;;;;;7.63;5.38;;;;;;;2.17;59.86;101769.59;10411009;28;20584;-66
2023/01/24 00:49:36;;;;;;;7.60;5.55;;;;;;;2.13;59.93;101756.72;10412655;28;20056;-64
2023/01/24 00:54:38;;;;;;;7.88;6.15;;;;;;;2.20;59.72;101761.03;10405093;28;20051;-65
2023/01/24 00:59:41;;;;;;;7.28;5.40;;;;;;;2.20;59.60;101756.72;10410230;28;20064;-65
2023/01/24 01:04:43;;;;;;;7.70;5.38;;;;;;;2.16;59.81;101754.13;10407241;28;20638;-66
2023/01/24 01:09:46;;;;;;;7.80;5.60;;;;;;;2.29;59.42;101761.06;10413871;28;20045;-65
2023/01/24 01:14:47;;;;;;;7.32;5.30;;;;;;;1.96;59.80;101764.38;10413010;28;20041;-66
2023/01/24 01:19:53;;;;;;;8.05;5.32;;;;;;;1.91;59.86;101772.97;10411003;28;20048;-66
2023/01/24 01:24:55;;;;;;;7.10;5.13;;;;;;;1.97;59.79;101763.50;10407557;28;20516;-65
2023/01/24 01:29:56;;;;;;;7.45;5.68;;;;;;;2.17;59.78;101763.59;10406098;28;20413;-65
2023/01/24 01:34:58;;;;;;;6.35;4.65;;;;;;;1.92;59.96;101779.81;10415786;28;20675;-65
2023/01/24 01:40:00;;;;;;;7.47;5.43;;;;;;;2.01;60.20;101774.72;10413721;28;20050;-65
2023/01/24 01:45:39;;;;;;;7.75;5.10;;;;;;;1.90;59.80;101781.53;10419543;28;20326;-64
2023/01/24 01:51:04;;;;;;;7.75;5.60;;;;;;;1.89;60.26;101785.00;10418014;28;20115;-65
2023/01/24 01:56:31;;;;;;;9.27;6.30;;;;;;;1.99;59.83;101781.59;10382774;28;20045;-65
2023/01/24 02:01:34;;;;;;;10.38;6.13;;;;;;;2.17;59.73;101785.09;10419819;28;20711;-64
2023/01/24 02:07:06;;;;;;;8.98;5.50;;;;;;;2.06;59.26;101798.81;10415415;28;20041;-65
2023/01/24 02:12:13;;;;;;;8.20;5.90;;;;;;;1.80;59.62;101801.28;10418067;28;20053;-65
2023/01/24 02:17:17;;;;;;;9.85;5.28;;;;;;;1.83;60.36;101790.09;10412075;28;20394;-65
2023/01/24 02:22:40;;;;;;;8.60;5.80;;;;;;;1.94;59.91;101791.03;10417267;28;20449;-65
2023/01/24 02:27:42;;;;;;;8.30;5.80;;;;;;;1.85;60.09;101785.81;10416571;28;20401;-65
2023/01/24 02:32:44;;;;;;;8.57;6.10;;;;;;;1.90;60.07;101786.69;10417690;28;20040;-64
2023/01/24 02:37:45;;;;;;;9.13;6.32;;;;;;;2.18;59.86;101778.22;10415310;28;20044;-65
2023/01/24 02:42:47;;;;;;;8.10;5.80;;;;;;;2.20;59.44;101786.81;10416748;28;20053;-65
2023/01/24 02:47:52;;;;;;;9.02;5.97;;;;;;;2.08;59.51;101785.06;10414409;28;20664;-66
2023/01/24 02:58:15;;;;;;;8.98;6.50;;;;;;;1.96;59.83;101782.44;10410152;28;20315;-65
2023/01/24 03:03:16;;;;;;;7.65;5.70;;;;;;;1.95;59.92;101788.44;10412582;28;20552;-65
2023/01/24 03:08:18;;;;;;;9.38;6.20;;;;;;;2.00;60.07;101783.31;10418570;28;20048;-65
2023/01/24 03:34:51;;;;;;;9.73;6.85;;;;;;;2.18;59.88;101788.53;10422902;28;20045;-65
2023/01/24 03:39:58;;;;;;;9.30;6.75;;;;;;;1.95;60.20;101793.59;10417572;28;20060;-65
2023/01/24 03:45:00;;;;;;;10.82;7.40;;;;;;;2.15;60.08;101791.13;10423953;28;20041;-65
2023/01/24 03:55:24;;;;;;;9.00;7.05;;;;;;;2.25;59.66;101808.38;10424417;28;20641;-66
2023/01/24 04:00:26;;;;;;;9.63;7.53;;;;;;;2.25;59.64;101800.63;10422978;28;20060;-64
2023/01/24 04:05:27;;;;;;;10.05;7.90;;;;;;;2.31;59.81;101799.78;10415780;28;20053;-65
2023/01/24 04:10:29;;;;;;;10.88;7.93;;;;;;;2.13;59.82;101791.09;10406026;28;20045;-64
2023/01/24 04:15:32;;;;;;;10.60;8.27;;;;;;;2.00;60.01;101798.78;10415445;28;20523;-66
2023/01/24 04:20:36;;;;;;;10.93;7.63;;;;;;;2.02;60.10;101797.06;10410655;28;20219;-65
2023/01/24 04:25:38;;;;;;;12.35;8.75;;;;;;;2.10;60.06;101798.84;10413534;28;20041;-65
2023/01/24 04:30:39;;;;;;;11.27;7.82;;;;;;;2.11;59.97;101799.72;10411776;28;20041;-65
2023/01/24 04:35:41;;;;;;;11.38;7.97;;;;;;;2.06;60.50;101794.53;10408271;28;20052;-65
2023/01/24 04:40:43;;;;;;;12.40;8.57;;;;;;;1.92;60.55;101805.63;10409503;28;20045;-65
2023/01/24 04:45:45;;;;;;;13.07;8.30;;;;;;;1.74;60.85;101805.53;10416167;28;20618;-65
2023/01/24 04:50:46;;;;;;;12.07;9.13;;;;;;;1.87;61.01;101803.03;10413859;28;20052;-66
2023/01/24 04:55:48;;;;;;;11.98;8.93;;;;;;;1.76;60.85;101804.69;10411967;28;20048;-65
2023/01/24 05:00:49;;;;;;;12.80;9.20;;;;;;;1.74;61.09;101802.94;10414470;28;20059;-66
2023/01/24 05:05:52;;;;;;;13.25;9.15;;;;;;;1.89;60.94;101805.63;10412553;28;20041;-64
2023/01/24 05:10:54;;;;;;;12.95;9.82;;;;;;;2.08;60.68;101807.44;10418505;28;20050;-64
2023/01/24 05:15:55;;;;;;;14.45;10.57;;;;;;;1.95;60.50;101814.25;10418043;28;20060;-65
2023/01/24 05:21:07;;;;;;;13.27;10.20;;;;;;;1.93;60.69;101810.78;10417822;28;20056;-64
2023/01/24 05:26:09;;;;;;;15.15;10.55;;;;;;;2.05;60.50;101810.00;10417126;28;20084;-64
2023/01/24 05:31:11;;;;;;;15.55;10.77;;;;;;;2.19;60.54;101805.78;10417351;28;20049;-65
2023/01/24 05:36:19;;;;;;;14.63;10.85;;;;;;;1.84;61.05;101809.88;10414759;28;20267;-64
2023/01/24 05:41:21;;;;;;;15.00;10.45;;;;;;;1.61;61.22;101814.03;10420891;28;20088;-64
2023/01/24 05:46:23;;;;;;;15.88;10.98;;;;;;;1.93;61.15;101815.94;10412924;28;20060;-64
2023/01/24 05:51:25;;;;;;;15.43;11.43;;;;;;;1.93;60.94;101810.78;10417826;28;20071;-64
2023/01/24 05:56:28;;;;;;;15.30;10.65;;;;;;;1.93;60.90;101815.13;10414263;28;20064;-64
2023/01/24 06:01:29;;;;;;;13.35;9.80;;;;;;;1.90;61.12;101822.81;10416825;28;20425;-64
2023/01/24 06:06:31;;;;;;;14.73;10.40;;;;;;;2.04;60.87;101834.06;10408108;28;20063;-64
2023/01/24 06:11:33;;;;;;;14.98;10.10;;;;;;;2.02;60.72;101839.25;10416504;28;20243;-64
2023/01/24 06:16:35;;;;;;;13.27;9.95;;;;;;;1.85;61.06;101834.81;10413484;28;20107;-64
2023/01/24 06:21:44;;;;;;;14.65;10.55;;;;;;;1.72;61.43;101844.22;10417168;28;20544;-65
2023/01/24 06:26:50;;;;;;;15.32;11.80;;;;;;;1.93;61.26;101846.06;10414610;28;20049;-64
2023/01/24 06:32:06;;;;;;;16.60;11.70;;;;;;;2.02;61.15;101864.16;10415180;28;20045;-65
2023/01/24 06:37:19;;;;;;;15.18;11.57;;;;;;;2.04;60.97;101852.13;10420096;28;20109;-64
2023/01/24 06:42:22;;;;;;;15.43;11.93;;;;;;;2.17;61.28;101861.69;10418427;28;20490;-64
2023/01/24 06:47:27;;;;;;;16.90;12.65;;;;;;;2.29;61.08;101864.31;10414177;28;20056;-64
2023/01/24 06:52:29;;;;;;;17.05;12.75;;;;;;;2.34;61.06;101864.34;10413173;28;20562;-64
2023/01/24 06:57:31;;;;;;;18.60;12.02;;;;;;;2.28;61.16;101866.88;10418614;28;20537;-64
2023/01/24 07:02:33;;;;;;;17.60;12.95;;;;;;;2.19;61.16;101868.56;10410558;28;20053;-65
2023/01/24 07:07:34;;;;;;;19.40;13.25;;;;;;;2.00;61.68;101874.50;10415251;28;20119;-64
2023/01/24 07:12:36;;;;;;;17.48;12.82;;;;;;;2.11;61.46;101884.88;10418157;28;20496;-65
2023/01/24 07:17:38;;;;;;;18.35;13.43;;;;;;;1.97;61.94;101881.34;10423954;28;20470;-65
2023/01/24 07:22:41;;;;;;;19.52;14.27;;;;;;;1.92;62.18;101890.78;10417406;28;20044;-64
2023/01/24 07:27:44;;;;;;;19.92;14.90;;;;;;;1.77;62.40;101894.09;10416314;28;20497;-64
2023/01/24 07:32:45;;;;;;;19.73;14.82;;;;;;;1.78;62.68;101895.84;10413105;28;20045;-65
2023/01/24 07:37:47;;;;;;;21.50;15.10;;;;;;;1.84;62.51;101910.50;10417168;28;20067;-65
2023/01/24 07:42:49;;;;;;;19.85;13.77;;;;;;;1.55;63.08;101906.81;10416280;28;20039;-65
2023/01/24 07:47:57;;;;;;;19.30;14.30;;;;;;;1.78;62.68;101911.31;10414166;28;20047;-64
2023/01/24 07:52:59;;;;;;;19.27;14.00;;;;;;;1.75;62.67;101919.03;10412387;28;20084;-65
2023/01/24 07:58:02;;;;;;;23.80;15.30;;;;;;;1.73;62.78;101925.88;10414990;28;20060;-64
2023/01/24 08:03:04;;;;;;;24.65;16.95;;;;;;;1.82;62.66;101933.72;10414838;28;20055;-64
2023/01/24 08:08:06;;;;;;;25.02;17.38;;;;;;;1.89;62.82;101937.22;10410406;28;20327;-64
2023/01/24 08:13:07;;;;;;;25.45;17.23;;;;;;;1.99;62.38;101932.09;10414488;28;20797;-64
2023/01/24 08:18:09;;;;;;;22.88;16.00;;;;;;;1.88;62.34;101938.03;10413890;28;20045;-64
2023/01/24 08:23:11;;;;;;;24.00;17.52;;;;;;;1.86;62.74;101950.94;10408324;28;20329;-64
2023/01/24 08:28:13;;;;;;;27.05;18.00;;;;;;;1.86;62.73;101952.66;10420979;28;20053;-64
2023/01/24 08:33:18;;;;;;;22.23;16.42;;;;;;;1.86;62.51;101955.22;10411801;28;20564;-64
2023/01/24 08:38:21;;;;;;;27.23;17.98;;;;;;;1.89;62.54;101955.25;10422264;28;20052;-64
2023/01/24 08:43:23;;;;;;;26.67;18.67;;;;;;;2.00;62.46;101959.66;10425982;28;20052;-64
2023/01/24 08:48:27;;;;;;;23.48;17.58;;;;;;;2.01;62.34;101955.34;10429735;28;20492;-65
2023/01/24 08:53:28;;;;;;;25.52;17.30;;;;;;;2.07;62.04;101968.31;10422790;28;20048;-65
2023/01/24 08:58:33;;;;;;;24.73;16.63;;;;;;;1.98;62.59;101975.97;10419870;28;20053;-64
2023/01/24 09:03:35;;;;;;;24.83;17.75;;;;;;;2.09;62.14;101975.19;10426890;28;20090;-65
2023/01/24 09:08:37;;;;;;;23.98;17.02;;;;;;;2.11;62.08;101975.22;10433271;28;20045;-65
2023/01/24 09:13:39;;;;;;;23.48;16.27;;;;;;;1.96;62.26;101973.38;10431364;28;20417;-65
2023/01/24 09:18:40;;;;;;;22.45;16.73;;;;;;;1.96;62.30;101972.50;10430969;28;20064;-65
2023/01/24 09:23:42;;;;;;;23.63;16.30;;;;;;;2.00;62.07;101969.09;10432470;28;20053;-65
2023/01/24 09:28:44;;;;;;;24.00;17.45;;;;;;;1.93;62.17;101980.25;10430062;28;20140;-64
2023/01/24 09:33:45;;;;;;;25.90;17.83;;;;;;;1.96;62.04;101982.81;10432311;28;20060;-65
2023/01/24 09:39:00;;;;;;;22.27;16.70;;;;;;;2.03;61.74;101982.03;10432598;28;20140;-64
2023/01/24 09:44:22;;;;;;;19.38;14.57;;;;;;;2.11;61.42;101988.13;10430751;28;20051;-64
2023/01/24 09:49:33;;;;;;;20.65;15.27;;;;;;;2.16;61.56;101989.00;10430025;28;20059;-64
2023/01/24 09:54:43;;;;;;;24.08;17.35;;;;;;;2.35;61.45;101985.69;10427928;28;20040;-65
2023/01/24 09:59:52;;;;;;;24.13;17.50;;;;;;;2.58;61.29;101991.00;10413682;28;20067;-65
2023/01/24 10:04:54;;;;;;;24.17;17.45;;;;;;;2.44;61.22;101990.91;10428481;28;20051;-65
2023/01/24 10:10:24;;;;;;;27.00;19.40;;;;;;;2.39;61.19;101991.75;10425250;28;20616;-65
2023/01/24 10:15:56;;;;;;;27.50;18.88;;;;;;;2.37;60.94;101986.56;10428859;28;20323;-65
2023/01/24 10:21:03;;;;;;;;;;;;;;;2.21;61.48;102000.25;10429605;28;20061;-64
2023/01/24 10:26:18;;;;;;;20.90;14.68;;;;;;;2.21;60.87;101998.50;10429707;28;19928;-64
2023/01/24 10:31:27;;;;;;;24.95;17.60;;;;;;;2.21;61.40;101992.50;10427650;28;20580;-65
2023/01/24 10:36:44;;;;;;;27.80;19.40;;;;;;;2.34;61.31;101991.69;10420557;28;20072;-64
2023/01/24 10:41:46;;;;;;;21.02;15.43;;;;;;;2.23;61.34;101988.19;10426872;28;20504;-65
2023/01/24 10:47:11;;;;;;;22.73;15.73;;;;;;;2.02;61.72;101993.19;10426447;28;20044;-64
2023/01/24 10:52:17;;;;;;;22.02;17.15;;;;;;;2.17;61.26;102001.91;10426447;28;20049;-65
2023/01/24 10:57:43;;;;;;;22.08;15.60;;;;;;;2.33;61.19;101995.16;10425528;28;20055;-64
2023/01/24 11:02:52;;;;;;;25.48;17.65;;;;;;;2.25;60.78;102001.97;10425464;28;20315;-65
2023/01/24 11:08:00;;;;;;;22.17;15.73;;;;;;;2.11;61.11;101988.97;10427527;28;20487;-64
2023/01/24 11:13:21;;;;;;;22.13;15.93;;;;;;;1.96;61.43;101981.13;10425068;28;20412;-64
2023/01/24 11:18:30;;;;;;;18.83;14.07;;;;;;;2.06;61.25;101979.47;10426117;28;20099;-64
2023/01/24 11:23:31;;;;;;;20.75;14.95;;;;;;;2.20;61.02;101962.34;10425238;28;20243;-64
2023/01/24 11:28:36;;;;;;;20.48;14.88;;;;;;;2.20;60.84;101964.94;10421916;28;20047;-64
2023/01/24 11:33:58;;;;;;;23.73;16.48;;;;;;;2.25;61.02;101949.47;10426658;28;20475;-64
2023/01/24 11:39:16;;;;;;;19.67;14.27;;;;;;;2.29;60.44;101957.25;10425158;28;20412;-64
2023/01/24 11:44:39;;;;;;;20.13;14.52;;;;;;;2.51;60.57;101948.78;10423693;28;20053;-64
2023/01/24 11:50:16;;;;;;;20.83;14.77;;;;;;;2.42;60.24;101945.28;10424967;28;20045;-65
2023/01/24 11:55:53;;;;;;;17.75;13.65;;;;;;;2.42;60.31;101943.56;10421965;28;20069;-65
2023/01/24 12:01:17;;;;;;;20.55;14.35;;;;;;;2.33;60.49;101943.53;10425247;28;20067;-65
2023/01/24 12:06:30;;;;;;;17.35;13.35;;;;;;;2.51;60.58;101942.75;10426740;28;20049;-65
2023/01/24 12:11:59;;;;;;;20.30;14.13;;;;;;;2.59;60.05;101939.34;10424576;28;20396;-64
2023/01/24 12:17:23;;;;;;;19.83;14.65;;;;;;;2.71;60.08;101935.94;10419615;28;20059;-65
2023/01/24 12:22:30;;;;;;;17.80;13.98;;;;;;;2.75;59.84;101933.38;10424062;28;20139;-65
2023/01/24 12:27:35;;;;;;;18.50;13.38;;;;;;;2.51;59.49;101927.25;10422513;28;20049;-65
2023/01/24 12:32:53;;;;;;;17.42;13.05;;;;;;;2.32;60.32;101928.88;10425208;28;20052;-65
2023/01/24 12:38:03;;;;;;;15.00;11.65;;;;;;;2.33;60.18;101917.69;10425193;28;20318;-65
2023/01/24 12:43:44;;;;;;;17.70;13.15;;;;;;;2.46;59.74;101914.31;10424152;28;20052;-65
2023/01/24 12:49:10;;;;;;;17.58;13.43;;;;;;;2.37;59.96;101919.44;10423966;28;20071;-64
2023/01/24 12:54:22;;;;;;;17.60;13.10;;;;;;;2.50;59.73;101915.22;10423186;28;20048;-64
2023/01/24 12:59:28;;;;;;;18.38;13.32;;;;;;;2.56;59.38;101918.66;10425203;28;20053;-64
2023/01/24 13:04:58;;;;;;;17.08;13.07;;;;;;;2.63;59.20;101911.81;10425209;28;20138;-64
2023/01/24 13:10:18;;;;;;;15.18;11.32;;;;;;;2.41;59.24;101918.59;10422333;28;20049;-64
2023/01/24 13:15:37;;;;;;;16.02;12.52;;;;;;;2.47;59.32;101910.00;10423469;28;20053;-64
2023/01/24 13:21:07;;;;;;;14.27;10.85;;;;;;;2.38;58.85;101908.25;10417478;28;20048;-64
2023/01/24 13:26:30;;;;;;;14.40;10.85;;;;;;;2.42;59.58;101907.41;10411097;28;20041;-64
2023/01/24 13:31:54;;;;;;;15.63;12.13;;;;;;;2.64;59.67;101904.03;10432000;28;20057;-64
2023/01/24 13:36:56;;;;;;;14.43;11.07;;;;;;;2.74;59.46;101894.63;10432868;28;20041;-64
2023/01/24 13:42:19;;;;;;;15.27;11.27;;;;;;;2.66;59.30;101896.34;10430795;28;20053;-65
2023/01/24 13:47:24;;;;;;;17.70;10.93;;;;;;;2.67;59.06;101904.06;10423664;28;20544;-64
2023/01/24 13:52:31;;;;;;;15.63;11.05;;;;;;;2.68;59.47;101899.78;10426752;28;20045;-64
2023/01/24 13:57:36;;;;;;;15.45;11.10;;;;;;;2.96;59.08;101902.47;10423711;28;20041;-65
2023/01/24 14:02:47;;;;;;;15.07;11.27;;;;;;;2.87;58.68;101902.41;10423357;28;20052;-64
2023/01/24 14:07:50;;;;;;;16.27;11.15;;;;;;;2.75;59.18;101906.69;10416611;28;20524;-64
2023/01/24 14:12:54;;;;;;;13.63;10.40;;;;;;;2.72;59.20;101920.47;10421586;28;20516;-64
2023/01/24 14:17:56;;;;;;;15.65;11.07;;;;;;;2.60;59.18;101922.97;10418799;28;20432;-64
2023/01/24 14:23:00;;;;;;;11.98;9.55;;;;;;;2.54;59.47;101909.19;10420656;28;20136;-64
2023/01/24 14:28:18;;;;;;;13.35;10.23;;;;;;;2.48;59.56;101907.44;10421594;28;20056;-64
2023/01/24 14:33:29;;;;;;;12.93;10.10;;;;;;;2.41;59.57;101908.28;10419563;28;20056;-64
2023/01/24 14:38:31;;;;;;;;;;;;;;;2.29;60.11;101904.75;10415097;28;20489;-64
2023/01/24 14:43:39;;;;;;;15.98;10.68;;;;;;;2.39;60.00;101902.25;10419029;28;19928;-64
2023/01/24 14:48:40;;;;;;;17.60;12.00;;;;;;;2.43;59.64;101901.41;10415169;28;20047;-64
2023/01/24 14:53:47;;;;;;;15.80;12.07;;;;;;;2.64;59.69;101909.22;10417100;28;20060;-64
2023/01/24 14:58:50;;;;;;;18.55;11.95;;;;;;;2.48;59.94;101902.25;10416594;28;20056;-64
2023/01/24 15:03:56;;;;;;;15.70;11.43;;;;;;;2.57;59.85;101901.44;10415920;28;20048;-65
2023/01/24 15:09:01;;;;;;;17.73;11.90;;;;;;;2.66;59.56;101899.75;10414844;28;20041;-64
2023/01/24 15:14:05;;;;;;;17.08;11.85;;;;;;;2.72;59.55;101907.56;10412959;28;20048;-65
2023/01/24 15:19:17;;;;;;;15.55;11.43;;;;;;;2.39;59.84;101912.56;10417738;28;20049;-64
2023/01/24 15:24:27;;;;;;;16.05;11.75;;;;;;;2.45;60.10;101911.72;10414957;28;20280;-64
2023/01/24 15:29:49;;;;;;;16.38;11.88;;;;;;;2.52;59.98;101919.50;10421400;28;20052;-65
2023/01/24 15:34:50;;;;;;;;;;;;;;;2.02;60.33;101926.09;10415724;28;20531;-64
2023/01/24 15:39:57;;;;;;;15.35;12.10;;;;;;;2.21;60.22;101927.97;10415827;28;20332;-64
2023/01/24 15:45:00;;;;;;;16.10;11.80;;;;;;;2.10;60.36;101914.09;10417764;28;20051;-64
2023/01/24 15:51:05;;;;;;;15.10;10.98;;;;;;;1.98;60.69;101919.19;10421520;28;20048;-64
2023/01/24 15:55:27;;;;;;;14.18;11.77;;;;;;;1.92;60.74;101930.34;10418217;28;20143;-64
2023/01/24 16:00:29;;;;;;;17.00;13.13;;;;;;;1.95;60.63;101934.66;10413706;28;20053;-64
2023/01/24 16:05:30;;;;;;;14.32;11.48;;;;;;;1.97;60.96;101932.97;10418960;28;20059;-64
2023/01/24 16:10:34;;;;;;;15.15;11.90;;;;;;;1.89;61.22;101932.88;10416026;28;20045;-64
2023/01/24 16:15:36;;;;;;;15.65;11.55;;;;;;;1.86;61.03;101932.88;10408100;28;20045;-65
2023/01/24 16:20:38;;;;;;;15.55;11.82;;;;;;;2.00;61.37;101927.81;10415683;28;20489;-65
2023/01/24 16:25:40;;;;;;;15.10;11.52;;;;;;;2.00;61.18;101930.38;10414624;28;20489;-65
2023/01/24 16:30:42;;;;;;;15.00;11.82;;;;;;;1.86;61.47;101937.16;10414508;28;20049;-65
2023/01/24 16:35:45;;;;;;;14.30;10.40;;;;;;;1.73;61.62;101940.50;10415427;28;20044;-66
2023/01/24 16:40:48;;;;;;;17.60;11.77;;;;;;;1.71;61.71;101943.06;10413120;28;20045;-65
2023/01/24 16:45:52;;;;;;;15.40;10.93;;;;;;;1.83;61.81;101935.44;10417958;28;20045;-65
2023/01/24 16:50:54;;;;;;;13.90;10.82;;;;;;;1.73;61.86;101937.91;10413156;28;20493;-65
2023/01/24 16:55:56;;;;;;;16.23;11.82;;;;;;;1.77;61.98;101937.09;10415136;28;20044;-65
2023/01/24 17:00:58;;;;;;;16.35;11.13;;;;;;;1.90;61.79;101938.91;10416605;28;20063;-65
2023/01/24 17:06:00;;;;;;;15.52;11.52;;;;;;;1.96;61.80;101934.69;10423791;28;20056;-65
2023/01/24 17:11:08;;;;;;;13.27;10.30;;;;;;;1.82;62.26;101933.72;10423991;28;20053;-65
2023/01/24 17:16:10;;;;;;;13.27;10.73;;;;;;;1.88;62.06;101946.66;10421969;28;20045;-65
2023/01/24 17:21:15;;;;;;;16.90;11.23;;;;;;;1.75;61.96;101944.81;10419617;28;20391;-65
2023/01/24 17:26:16;;;;;;;14.40;10.15;;;;;;;1.64;62.05;101936.16;10423778;28;20044;-65
2023/01/24 17:31:20;;;;;;;15.07;11.27;;;;;;;1.80;61.93;101924.22;10428300;28;20048;-65
2023/01/24 17:36:21;;;;;;;14.20;10.48;;;;;;;1.67;62.12;101927.53;10421031;28;20288;-65
2023/01/24 17:41:23;;;;;;;12.90;9.57;;;;;;;1.80;62.03;101929.38;10425866;28;20432;-66
2023/01/24 17:46:25;;;;;;;13.70;10.35;;;;;;;2.02;61.93;101933.84;10431687;28;20055;-65
2023/01/24 17:51:27;;;;;;;14.15;11.05;;;;;;;2.17;61.61;101931.38;10431720;28;20091;-65
2023/01/24 17:56:29;;;;;;;13.00;10.60;;;;;;;2.35;61.51;101940.94;10420399;28;20163;-65
2023/01/24 18:01:31;;;;;;;14.35;10.73;;;;;;;2.39;61.18;101933.22;10422878;28;20425;-65
2023/01/24 18:06:32;;;;;;;13.00;9.65;;;;;;;2.33;60.99;101928.03;10423252;28;20049;-65
2023/01/24 18:11:35;;;;;;;12.88;9.43;;;;;;;2.25;61.41;101919.38;10421822;28;20398;-65
2023/01/24 18:16:37;;;;;;;12.00;9.43;;;;;;;1.97;61.88;101935.53;10415565;28;20041;-65
2023/01/24 18:21:39;;;;;;;10.02;7.53;;;;;;;2.06;61.40;101935.59;10420564;28;20318;-65
2023/01/24 18:26:41;;;;;;;13.13;9.43;;;;;;;1.98;61.63;101945.00;10416211;28;20037;-66
2023/01/24 18:31:43;;;;;;;12.23;9.80;;;;;;;2.10;61.63;101939.91;10422113;28;20083;-65
2023/01/24 18:36:48;;;;;;;13.60;9.70;;;;;;;2.15;61.73;101940.81;10418106;28;20599;-66
2023/01/24 18:41:50;;;;;;;12.13;9.15;;;;;;;2.07;61.55;101945.06;10423711;28;20587;-64
2023/01/24 18:46:51;;;;;;;11.63;8.95;;;;;;;2.00;61.56;101944.16;10429121;28;20678;-65
2023/01/24 18:51:53;;;;;;;11.52;8.13;;;;;;;1.88;61.78;101943.22;10422338;28;20421;-65
2023/01/24 18:56:55;;;;;;;11.40;8.70;;;;;;;1.86;61.93;101939.75;10414142;28;20045;-65
2023/01/24 19:01:57;;;;;;;9.75;7.90;;;;;;;1.80;61.53;101940.56;10417979;28;20057;-65
2023/01/24 19:07:01;;;;;;;12.70;9.02;;;;;;;1.93;61.74;101934.63;10415306;28;20191;-64
2023/01/24 19:12:03;;;;;;;12.80;8.68;;;;;;;2.13;61.56;101924.47;10415061;28;20530;-65
2023/01/24 19:17:07;;;;;;;11.25;8.80;;;;;;;2.15;61.97;101927.91;10412197;28;20052;-65
2023/01/24 19:22:08;;;;;;;10.80;8.43;;;;;;;2.01;62.04;101940.72;10415968;28;20304;-65
2023/01/24 19:27:10;;;;;;;11.30;9.02;;;;;;;1.93;61.81;101936.38;10418998;28;20851;-65
2023/01/24 19:32:12;;;;;;;9.15;7.45;;;;;;;1.49;62.45;101927.41;10413486;28;20420;-65
2023/01/24 19:37:13;;;;;;;10.95;7.97;;;;;;;1.41;62.51;101932.50;10423964;28;20048;-65
2023/01/24 19:42:15;;;;;;;10.77;8.70;;;;;;;1.70;61.90;101927.59;10417809;28;20425;-65
2023/01/24 19:47:17;;;;;;;12.68;9.65;;;;;;;1.74;61.71;101934.50;10412968;28;20053;-65
2023/01/24 19:52:18;;;;;;;12.88;9.70;;;;;;;1.87;62.01;101926.84;10412525;28;20052;-65
2023/01/24 19:57:22;;;;;;;13.25;10.48;;;;;;;2.05;61.74;101939.03;10412918;28;20055;-65
2023/01/24 20:02:24;;;;;;;14.15;10.30;;;;;;;2.10;61.43;101948.53;10408787;28;20610;-65
2023/01/24 20:07:26;;;;;;;13.13;10.65;;;;;;;1.92;61.58;101950.97;10410784;28;20260;-64
2023/01/24 20:12:27;;;;;;;12.32;9.98;;;;;;;1.95;61.73;101945.84;10411207;28;20045;-65
2023/01/24 20:17:29;;;;;;;15.15;10.25;;;;;;;2.00;61.75;101939.00;10416653;28;20048;-65
2023/01/24 20:22:31;;;;;;;13.93;10.88;;;;;;;2.06;61.68;101945.91;10407619;28;20056;-65
2023/01/24 20:27:33;;;;;;;13.05;9.60;;;;;;;1.85;62.18;101948.31;10412862;28;20635;-65
2023/01/24 20:32:35;;;;;;;13.23;9.15;;;;;;;1.71;62.60;101945.66;10415124;28;20142;-66
2023/01/24 20:37:36;;;;;;;12.85;9.32;;;;;;;1.67;62.44;101949.06;10418102;28;20155;-65
2023/01/24 20:42:40;;;;;;;11.75;9.82;;;;;;;1.84;62.58;101952.66;10425613;28;20048;-65
2023/01/24 20:47:42;;;;;;;12.32;9.90;;;;;;;1.88;62.03;101945.78;10423724;28;20052;-65
2023/01/24 20:52:44;;;;;;;13.38;10.23;;;;;;;1.88;62.21;101941.50;10417160;28;20501;-65
2023/01/24 20:57:45;;;;;;;14.18;10.85;;;;;;;1.92;62.46;101947.53;10420739;28;20048;-65
2023/01/24 21:02:52;;;;;;;13.82;11.23;;;;;;;1.97;61.85;101945.88;10419633;28;20060;-65
2023/01/24 21:07:54;;;;;;;15.43;11.95;;;;;;;1.81;62.40;101947.44;10421287;28;20049;-65
2023/01/24 21:12:55;;;;;;;13.43;10.90;;;;;;;1.86;62.75;101942.34;10429611;28;20072;-65
2023/01/24 21:17:58;;;;;;;18.38;13.88;;;;;;;2.06;62.33;101938.16;10425818;28;20052;-65
2023/01/24 21:23:00;;;;;;;14.30;12.00;;;;;;;2.21;61.90;101931.38;10421718;28;20160;-64
2023/01/24 21:28:02;;;;;;;14.95;11.95;;;;;;;2.32;61.99;101920.28;10423149;28;20048;-64
2023/01/24 21:33:04;;;;;;;14.50;11.73;;;;;;;2.36;61.81;101925.44;10418806;28;20504;-64
2023/01/24 21:38:06;;;;;;;14.38;11.15;;;;;;;2.22;62.13;101916.75;10424725;28;20041;-64
2023/01/24 21:43:07;;;;;;;14.45;10.65;;;;;;;1.93;62.23;101923.47;10426527;28;20049;-64
2023/01/24 21:48:09;;;;;;;13.00;10.68;;;;;;;1.77;63.01;101919.03;10428900;28;20055;-65
2023/01/24 21:54:01;;;;;;;11.85;9.90;;;;;;;1.95;62.69;101922.59;10426290;28;20404;-64
2023/01/24 21:58:33;;;;;;;16.33;12.20;;;;;;;1.89;62.45;101927.72;10421858;28;20055;-64
2023/01/24 22:03:36;;;;;;;14.75;11.98;;;;;;;1.93;62.68;101926.91;10419897;28;20611;-65
2023/01/24 22:08:38;;;;;;;16.10;12.90;;;;;;;2.07;62.31;101924.44;10420172;28;20063;-64
2023/01/24 22:13:39;;;;;;;16.10;13.45;;;;;;;2.21;62.00;101918.47;10421728;28;20126;-65
2023/01/24 22:18:41;;;;;;;17.13;13.60;;;;;;;2.22;62.03;101921.94;10418117;28;20431;-64
2023/01/24 22:23:55;;;;;;;14.90;11.90;;;;;;;2.11;62.39;101918.44;10420402;28;20511;-64
2023/01/24 22:28:57;;;;;;;14.05;11.00;;;;;;;1.96;62.75;101918.31;10416977;28;20045;-64
2023/01/24 22:33:59;;;;;;;18.00;12.45;;;;;;;1.83;63.05;101917.38;10418493;28;20724;-64
2023/01/24 22:39:01;;;;;;;18.73;13.95;;;;;;;1.75;62.74;101918.16;10417147;28;20048;-64
2023/01/24 22:44:02;;;;;;;17.50;14.07;;;;;;;1.82;62.75;101913.06;10419686;28;20330;-64
2023/01/24 22:49:04;;;;;;;16.60;12.82;;;;;;;1.54;63.49;101910.25;10416423;28;20409;-64
2023/01/24 22:54:06;;;;;;;15.98;13.00;;;;;;;1.52;63.64;101904.22;10419053;28;20045;-64
2023/01/24 22:59:07;;;;;;;18.90;13.93;;;;;;;1.73;63.59;101900.09;10421158;28;20057;-64
2023/01/24 23:04:09;;;;;;;19.17;14.90;;;;;;;1.77;63.10;101898.38;10419115;28;20049;-64
2023/01/24 23:09:11;;;;;;;21.05;14.98;;;;;;;1.96;63.20;101890.81;10417622;28;20041;-64
2023/01/24 23:25:03;;;;;;;17.00;12.38;;;;;;;1.96;63.30;101879.63;10418258;28;20048;-64
2023/01/24 23:30:24;;;;;;;16.00;12.25;;;;;;;1.92;63.54;101875.28;10420206;28;20052;-64
2023/01/24 23:35:26;;;;;;;14.52;12.00;;;;;;;1.94;63.42;101871.00;10421061;28;20413;-64
2023/01/24 23:40:27;;;;;;;15.82;12.05;;;;;;;2.00;63.47;101863.28;10418137;28;20049;-64
2023/01/24 23:45:29;;;;;;;17.02;11.95;;;;;;;1.99;63.38;101853.84;10427877;28;20080;-64
2023/01/24 23:50:31;;;;;;;18.48;13.63;;;;;;;1.96;63.17;101848.66;10427128;28;20059;-64
2023/01/24 23:55:32;;;;;;;18.35;13.65;;;;;;;1.81;63.56;101843.38;10426884;28;20049;-64
